Misawa, Japan
Current Conditions -  °F | °C
As of 9:00 PM on Thursday 30 Oct 2014 (Local Time) from RJSA Reporting Station
Few Clouds Few Clouds  
Wind Chill: 41°   Ceiling: Unl
Heat Index: 45°   Visibility: 6mi
Dew Point: 41°   Wind: 7mph
Humidity: 87%   Direction: 190°S
Pressure: 30.27"   Gusts: NA
Location:  40.68°N, 141.37°E
Report Text: RJSA 301200Z 19006KT 9999 FEW025 07/05 Q1025
Loading
Personal Weather Stations






























Interactive Weather Map
Tropical Storm Tracking
New forecast layout! Learn more

10-Day Weather Forecast

Advertisements
Track Severe Weather on mobile